Time;durP1;ratioP1;P1;durP2;ratioP2;P2;SDS_P1;SDS_P2;PMS_P1;PMS_P2;Temp;Humidity;BMP_temperature;BMP_pressure;BME280_temperature;BME280_humidity;BME280_pressure;Samples;Min_cycle;Max_cycle;Signal;HPM_P1;HPM_P2
2022/04/24 00:02:17;;;;;;;8.43;6.38;;;11.30;99.90;;;;;;5111714;28;20152;-66
2022/04/24 00:04:43;;;;;;;8.75;6.85;;;11.30;99.90;;;;;;5110322;28;20114;-67
2022/04/24 00:07:09;;;;;;;8.45;6.25;;;11.20;99.90;;;;;;5110343;28;20181;-67
2022/04/24 00:09:36;;;;;;;9.20;6.20;;;11.20;99.90;;;;;;5094566;28;20039;-66
2022/04/24 00:12:02;;;;;;;8.55;6.20;;;11.60;99.90;;;;;;5111090;28;20043;-67
2022/04/24 00:14:27;;;;;;;7.75;6.20;;;11.20;99.90;;;;;;5112575;28;20043;-67
2022/04/24 00:16:53;;;;;;;8.68;6.10;;;11.10;99.90;;;;;;5075401;28;20050;-67
2022/04/24 00:19:19;;;;;;;8.52;6.55;;;11.10;99.90;;;;;;5112280;28;20044;-67
2022/04/24 00:21:46;;;;;;;8.27;6.00;;;11.10;99.90;;;;;;5109103;28;20444;-67
2022/04/24 00:24:12;;;;;;;8.45;6.38;;;11.10;99.90;;;;;;5111350;28;20035;-67
2022/04/24 00:26:38;;;;;;;9.32;6.70;;;11.00;99.90;;;;;;5110858;28;20376;-67
2022/04/24 00:29:04;;;;;;;11.30;6.40;;;11.00;99.90;;;;;;5111259;28;20039;-67
2022/04/24 00:31:30;;;;;;;8.10;6.28;;;10.90;99.90;;;;;;5110149;28;20031;-67
2022/04/24 00:33:55;;;;;;;8.10;5.90;;;12.00;99.90;;;;;;5092824;28;20563;-67
2022/04/24 00:36:21;;;;;;;8.38;6.47;;;10.90;99.90;;;;;;5092487;28;20052;-67
2022/04/24 00:38:47;;;;;;;10.75;6.47;;;11.60;99.90;;;;;;5092644;28;20052;-67
2022/04/24 00:41:13;;;;;;;10.52;6.70;;;10.80;99.90;;;;;;5111437;28;20399;-67
2022/04/24 00:43:39;;;;;;;8.75;6.70;;;10.80;99.90;;;;;;5110903;28;20097;-67
2022/04/24 00:46:13;;;;;;;13.38;6.30;;;11.50;99.90;;;;;;5092034;28;20061;-67
2022/04/24 00:48:43;;;;;;;8.38;6.82;;;10.80;99.90;;;;;;5111354;28;20043;-68
2022/04/24 00:51:09;;;;;;;12.07;6.50;;;10.80;99.90;;;;;;5075529;28;20518;-67
2022/04/24 00:53:35;;;;;;;7.90;6.20;;;10.80;99.90;;;;;;5090810;28;20040;-67
2022/04/24 00:56:02;;;;;;;10.02;6.43;;;10.80;99.90;;;;;;5110227;28;20151;-67
2022/04/24 00:58:27;;;;;;;8.13;6.35;;;10.70;99.90;;;;;;5093398;28;20511;-67
2022/04/24 01:00:53;;;;;;;9.05;6.53;;;10.70;99.90;;;;;;5110903;28;20032;-67
2022/04/24 01:03:19;;;;;;;8.50;7.03;;;10.70;99.90;;;;;;5110028;28;20075;-67
2022/04/24 01:05:45;;;;;;;9.50;6.57;;;11.10;99.90;;;;;;5110511;28;20068;-67
2022/04/24 01:08:10;;;;;;;8.27;6.43;;;11.70;99.90;;;;;;5108906;28;20130;-68
2022/04/24 01:10:37;;;;;;;8.25;6.88;;;10.60;99.90;;;;;;5110111;28;20126;-67
2022/04/24 01:13:04;;;;;;;10.52;6.38;;;10.70;99.90;;;;;;5102211;28;20035;-67
2022/04/24 01:15:30;;;;;;;8.10;7.03;;;10.80;99.90;;;;;;5110349;28;20039;-66
2022/04/24 01:17:56;;;;;;;9.60;6.82;;;10.60;99.90;;;;;;5091295;28;20126;-66
2022/04/24 01:20:22;;;;;;;9.48;6.95;;;10.60;99.90;;;;;;5109956;28;20130;-66
2022/04/24 01:22:48;;;;;;;9.02;7.03;;;10.60;99.90;;;;;;5110387;28;20106;-66
2022/04/24 01:25:14;;;;;;;8.45;6.80;;;10.50;99.90;;;;;;5110272;28;20043;-66
2022/04/24 01:27:40;;;;;;;10.18;6.82;;;10.50;99.90;;;;;;5108644;28;20043;-66
2022/04/24 01:30:06;;;;;;;9.43;6.93;;;10.50;99.90;;;;;;5126586;27;20093;-67
2022/04/24 01:32:33;;;;;;;9.68;7.35;;;10.40;99.90;;;;;;5092922;28;20055;-67
2022/04/24 01:35:00;;;;;;;8.88;6.95;;;10.40;99.90;;;;;;5089246;28;20088;-67
2022/04/24 01:37:26;;;;;;;8.98;7.18;;;11.00;99.90;;;;;;5074035;28;20039;-67
2022/04/24 01:39:55;;;;;;;8.50;7.00;;;10.30;99.90;;;;;;5091483;28;20070;-67
2022/04/24 01:42:22;;;;;;;10.05;7.50;;;10.30;99.90;;;;;;5109449;28;20068;-67
2022/04/24 01:44:47;;;;;;;9.93;6.82;;;10.30;99.90;;;;;;5110261;28;20051;-67
2022/04/24 01:47:13;;;;;;;9.15;7.25;;;10.30;99.90;;;;;;5109915;28;20495;-67
2022/04/24 01:49:39;;;;;;;9.00;7.53;;;10.30;99.90;;;;;;5109163;28;20531;-67
2022/04/24 01:52:06;;;;;;;8.75;7.30;;;9.90;99.90;;;;;;5108244;28;20032;-67
2022/04/24 01:54:31;;;;;;;11.13;8.43;;;10.10;99.90;;;;;;5091821;28;20096;-66
2022/04/24 01:56:57;;;;;;;9.73;8.05;;;10.20;99.90;;;;;;5108157;28;20591;-67
2022/04/24 01:59:23;;;;;;;10.27;8.70;;;10.10;99.90;;;;;;5110311;28;20055;-67
2022/04/24 02:01:49;;;;;;;10.60;8.23;;;10.10;99.90;;;;;;5090742;28;20392;-67
2022/04/24 02:04:16;;;;;;;10.80;8.15;;;10.00;99.90;;;;;;5089375;28;20055;-67
2022/04/24 02:06:42;;;;;;;11.88;8.10;;;10.00;99.90;;;;;;5099631;28;20051;-67
2022/04/24 02:09:08;;;;;;;11.98;7.57;;;10.00;99.90;;;;;;5110460;28;20042;-67
2022/04/24 02:11:33;;;;;;;12.70;7.95;;;10.00;99.90;;;;;;5108905;28;20043;-67
2022/04/24 02:13:59;;;;;;;12.07;7.57;;;9.90;99.90;;;;;;5108147;28;20055;-66
2022/04/24 02:16:25;;;;;;;9.98;7.57;;;9.90;99.90;;;;;;5090728;28;20047;-66
2022/04/24 02:18:50;;;;;;;9.65;7.80;;;9.80;99.90;;;;;;5108450;28;20100;-66
2022/04/24 02:21:16;;;;;;;11.02;7.93;;;10.60;99.90;;;;;;5108638;28;20139;-68
2022/04/24 02:23:41;;;;;;;10.98;7.95;;;9.70;99.90;;;;;;5109480;28;20028;-68
2022/04/24 02:26:07;;;;;;;10.70;7.78;;;9.70;99.90;;;;;;5093599;28;20476;-68
2022/04/24 02:28:33;;;;;;;10.15;8.25;;;9.70;99.90;;;;;;5111272;28;20118;-68
2022/04/24 02:30:58;;;;;;;9.68;8.02;;;9.60;99.90;;;;;;5104137;28;20039;-68
2022/04/24 02:33:24;;;;;;;9.85;7.45;;;9.60;99.90;;;;;;5088489;28;20036;-68
2022/04/24 02:35:49;;;;;;;11.90;8.10;;;9.60;99.90;;;;;;5105742;28;20135;-68
2022/04/24 02:38:15;;;;;;;12.40;8.02;;;9.80;99.90;;;;;;5107024;28;20039;-68
2022/04/24 02:40:41;;;;;;;11.77;8.10;;;9.50;99.90;;;;;;5108753;28;20086;-68
2022/04/24 02:43:06;;;;;;;12.93;8.30;;;9.50;99.90;;;;;;5109347;28;20043;-68
2022/04/24 02:45:32;;;;;;;12.85;8.57;;;10.20;99.90;;;;;;5108940;28;20043;-68
2022/04/24 02:47:58;;;;;;;10.35;8.45;;;9.50;99.90;;;;;;5108250;28;20427;-68
2022/04/24 02:50:24;;;;;;;11.68;8.43;;;9.40;99.90;;;;;;5074206;28;20043;-68
2022/04/24 02:52:52;;;;;;;12.90;8.05;;;9.40;99.90;;;;;;5105779;28;20069;-68
2022/04/24 02:55:18;;;;;;;12.43;8.00;;;9.30;99.90;;;;;;5109075;28;20064;-68
2022/04/24 02:57:45;;;;;;;11.43;8.10;;;9.30;99.90;;;;;;5105469;28;20044;-68
2022/04/24 03:00:12;;;;;;;10.65;8.27;;;9.30;99.90;;;;;;5108299;28;20062;-68
2022/04/24 03:02:44;;;;;;;11.57;8.07;;;9.30;99.90;;;;;;5089754;28;20043;-68
2022/04/24 03:05:18;;;;;;;12.32;8.18;;;9.30;99.90;;;;;;5109268;28;20042;-68
2022/04/24 03:07:45;;;;;;;11.27;8.60;;;10.50;99.90;;;;;;5105882;28;20097;-67
2022/04/24 03:10:11;;;;;;;10.50;7.88;;;9.20;99.90;;;;;;5090416;28;20130;-67
2022/04/24 03:12:38;;;;;;;12.18;8.20;;;9.20;99.90;;;;;;5074350;28;20044;-67
2022/04/24 03:15:05;;;;;;;9.52;7.57;;;9.20;99.90;;;;;;5105628;28;20035;-67
2022/04/24 03:17:32;;;;;;;11.13;7.93;;;9.10;99.90;;;;;;5108554;28;20104;-67
2022/04/24 03:20:03;;;;;;;11.85;7.85;;;9.10;99.90;;;;;;5107232;28;20039;-67
2022/04/24 03:22:33;;;;;;;10.35;7.45;;;9.10;99.90;;;;;;5107050;28;20077;-68
2022/04/24 03:24:59;;;;;;;10.50;7.82;;;9.00;99.90;;;;;;5090820;28;20633;-67
2022/04/24 03:27:24;;;;;;;10.70;7.90;;;9.10;99.90;;;;;;5111987;28;20138;-68
2022/04/24 03:29:50;;;;;;;12.02;7.53;;;9.00;99.90;;;;;;5112711;28;20375;-67
2022/04/24 03:32:16;;;;;;;11.23;7.88;;;9.00;99.90;;;;;;5112090;28;20093;-67
2022/04/24 03:34:41;;;;;;;13.35;7.90;;;9.00;99.90;;;;;;5111298;28;20649;-67
2022/04/24 03:37:07;;;;;;;13.38;8.05;;;8.90;99.90;;;;;;5092713;28;20039;-67
2022/04/24 03:39:33;;;;;;;12.52;7.90;;;8.90;99.90;;;;;;5112325;28;20117;-67
2022/04/24 03:41:58;;;;;;;12.45;7.68;;;8.90;99.90;;;;;;5111249;28;20582;-67
2022/04/24 03:44:24;;;;;;;11.73;8.00;;;8.90;99.90;;;;;;5094064;28;20047;-68
2022/04/24 03:46:49;;;;;;;9.75;7.65;;;8.90;99.90;;;;;;5092634;28;20081;-67
2022/04/24 03:49:16;;;;;;;14.13;8.02;;;8.80;99.90;;;;;;5111902;28;20043;-67
2022/04/24 03:51:42;;;;;;;10.93;7.88;;;8.80;99.90;;;;;;5109566;28;20194;-67
2022/04/24 03:54:07;;;;;;;11.57;7.65;;;8.80;99.90;;;;;;5112253;28;20563;-67
2022/04/24 03:56:33;;;;;;;9.98;7.40;;;8.80;99.90;;;;;;5095244;28;20071;-67
2022/04/24 03:58:59;;;;;;;11.00;7.60;;;8.70;99.90;;;;;;5114456;28;20047;-67
2022/04/24 04:01:24;;;;;;;10.88;7.85;;;8.70;99.90;;;;;;5100309;28;20448;-67
2022/04/24 04:03:51;;;;;;;11.27;7.70;;;8.70;99.90;;;;;;5092303;28;20456;-67
2022/04/24 04:06:16;;;;;;;10.13;7.43;;;8.60;99.90;;;;;;5110299;28;20043;-67
2022/04/24 04:08:42;;;;;;;9.65;7.72;;;8.60;99.90;;;;;;5113001;28;20031;-67
2022/04/24 04:11:07;;;;;;;10.55;7.78;;;8.60;99.90;;;;;;5110894;28;20039;-67
2022/04/24 04:13:34;;;;;;;10.52;6.90;;;8.60;99.90;;;;;;5112394;28;20088;-67
2022/04/24 04:15:59;;;;;;;13.20;7.47;;;8.60;99.90;;;;;;5111754;28;20063;-66
2022/04/24 04:18:25;;;;;;;10.50;7.30;;;8.50;99.90;;;;;;5110949;28;20043;-67
2022/04/24 04:20:51;;;;;;;11.40;7.68;;;8.50;99.90;;;;;;5110790;28;20039;-66
2022/04/24 04:23:16;;;;;;;10.48;7.53;;;8.50;99.90;;;;;;5109685;28;20040;-66
2022/04/24 04:25:42;;;;;;;10.05;7.20;;;8.50;99.90;;;;;;5110861;28;20051;-66
2022/04/24 04:28:08;;;;;;;11.10;7.15;;;8.50;99.90;;;;;;5111478;28;20047;-67
2022/04/24 04:30:33;;;;;;;10.05;7.45;;;8.40;99.90;;;;;;5093185;28;20403;-67
2022/04/24 04:32:59;;;;;;;11.40;7.18;;;8.50;99.90;;;;;;5090456;28;20070;-67
2022/04/24 04:35:25;;;;;;;10.57;7.10;;;8.50;99.90;;;;;;5075920;28;20040;-67
2022/04/24 04:37:51;;;;;;;10.95;8.13;;;8.50;99.90;;;;;;5107654;28;20449;-67
2022/04/24 04:40:18;;;;;;;9.32;7.43;;;8.40;99.90;;;;;;5111429;28;20047;-67
2022/04/24 04:42:45;;;;;;;12.68;7.90;;;8.40;99.90;;;;;;5110578;28;20092;-67
2022/04/24 04:45:10;;;;;;;10.73;7.30;;;8.50;99.90;;;;;;5110895;28;20487;-67
2022/04/24 04:47:36;;;;;;;11.57;7.93;;;8.50;99.90;;;;;;5111426;28;20085;-67
2022/04/24 04:50:02;;;;;;;10.70;7.95;;;8.50;99.90;;;;;;5092378;28;20176;-67
2022/04/24 04:52:28;;;;;;;10.55;7.75;;;8.60;99.90;;;;;;5108573;28;20085;-67
2022/04/24 04:54:53;;;;;;;10.60;7.55;;;8.50;99.90;;;;;;5110906;28;20054;-68
2022/04/24 04:57:19;;;;;;;14.32;7.82;;;8.60;99.90;;;;;;5110967;28;20079;-68
2022/04/24 04:59:44;;;;;;;10.82;7.93;;;8.60;99.90;;;;;;5110561;28;20132;-68
2022/04/24 05:02:10;;;;;;;12.23;8.13;;;8.60;99.90;;;;;;5092507;28;20546;-68
2022/04/24 05:04:36;;;;;;;12.52;7.90;;;8.60;99.90;;;;;;5110445;28;20048;-68
2022/04/24 05:07:01;;;;;;;11.23;7.72;;;8.60;99.90;;;;;;5108001;28;20048;-68
2022/04/24 05:09:27;;;;;;;11.95;8.23;;;8.60;99.90;;;;;;5111295;28;20050;-68
2022/04/24 05:11:53;;;;;;;10.25;7.90;;;8.70;99.90;;;;;;5098269;28;20126;-68
2022/04/24 05:14:19;;;;;;;12.98;8.15;;;8.70;99.90;;;;;;5090349;28;20040;-68
2022/04/24 05:16:45;;;;;;;11.75;8.20;;;8.70;99.90;;;;;;5089546;28;20036;-68
2022/04/24 05:19:10;;;;;;;12.00;8.30;;;8.80;99.90;;;;;;5100352;28;20433;-68
2022/04/24 05:21:36;;;;;;;13.77;8.15;;;8.80;99.90;;;;;;5108073;28;20226;-68
2022/04/24 05:24:02;;;;;;;11.75;8.20;;;8.80;99.90;;;;;;5110413;28;20047;-68
2022/04/24 05:26:27;;;;;;;13.32;8.48;;;9.60;99.90;;;;;;5089982;28;20044;-68
2022/04/24 05:28:53;;;;;;;11.38;8.10;;;8.80;99.90;;;;;;5106438;28;20050;-68
2022/04/24 05:31:19;;;;;;;13.52;9.38;;;8.80;99.90;;;;;;5110330;28;20036;-68
2022/04/24 05:33:45;;;;;;;13.60;8.88;;;9.00;99.90;;;;;;5109499;28;20535;-68
2022/04/24 05:36:12;;;;;;;14.38;8.77;;;9.00;99.90;;;;;;5074240;28;20046;-68
2022/04/24 05:38:37;;;;;;;13.05;8.43;;;9.00;99.90;;;;;;5109639;28;20381;-68
2022/04/24 05:41:03;;;;;;;13.15;8.32;;;9.00;99.90;;;;;;5109626;28;20380;-68
2022/04/24 05:43:29;;;;;;;12.25;8.75;;;10.20;99.90;;;;;;5110078;28;20495;-67
2022/04/24 05:45:55;;;;;;;12.65;8.13;;;9.00;99.90;;;;;;5110025;28;20046;-68
2022/04/24 05:48:22;;;;;;;15.82;9.23;;;9.20;99.90;;;;;;5090395;28;20043;-68
2022/04/24 05:50:48;;;;;;;13.05;8.82;;;9.20;99.90;;;;;;5109957;28;20058;-67
2022/04/24 05:53:13;;;;;;;16.48;8.68;;;9.20;99.90;;;;;;5089872;28;20051;-67
2022/04/24 05:55:39;;;;;;;11.82;8.30;;;9.20;99.90;;;;;;5109162;28;20044;-67
2022/04/24 05:58:05;;;;;;;11.05;8.32;;;9.30;99.90;;;;;;5091352;28;20051;-67
2022/04/24 06:00:30;;;;;;;10.88;7.68;;;9.30;99.90;;;;;;5110130;28;20039;-67
2022/04/24 06:02:56;;;;;;;11.90;7.93;;;9.40;99.90;;;;;;5110317;28;20566;-67
2022/04/24 06:05:22;;;;;;;10.13;7.45;;;9.50;99.90;;;;;;5109221;28;20044;-68
2022/04/24 06:07:48;;;;;;;14.18;7.80;;;9.60;99.90;;;;;;5107337;28;20039;-67
2022/04/24 06:10:14;;;;;;;10.48;7.45;;;9.60;99.90;;;;;;5109488;28;20368;-68
2022/04/24 06:12:47;;;;;;;10.57;7.15;;;9.60;99.90;;;;;;5108821;28;20044;-67
2022/04/24 06:15:15;;;;;;;9.52;6.63;;;9.70;99.90;;;;;;5096210;28;20059;-67
2022/04/24 06:17:42;;;;;;;10.85;6.45;;;9.80;99.90;;;;;;5091178;28;20390;-67
2022/04/24 06:20:08;;;;;;;9.13;6.28;;;9.90;99.90;;;;;;5108732;28;20043;-67
2022/04/24 06:22:42;;;;;;;11.82;6.55;;;9.80;99.90;;;;;;5107187;28;20314;-68
2022/04/24 06:25:08;;;;;;;12.93;6.72;;;9.90;99.90;;;;;;5109360;28;20395;-68
2022/04/24 06:27:33;;;;;;;9.90;6.30;;;9.90;99.90;;;;;;5091137;28;20048;-68
2022/04/24 06:29:59;;;;;;;9.77;5.82;;;10.00;99.90;;;;;;5107833;28;20377;-67
2022/04/24 06:32:28;;;;;;;8.45;5.43;;;10.10;99.90;;;;;;5073427;28;20131;-68
2022/04/24 06:34:54;;;;;;;9.80;5.68;;;10.10;99.90;;;;;;5108992;28;20052;-69
2022/04/24 06:37:20;;;;;;;7.50;4.82;;;10.20;99.90;;;;;;5088138;28;20392;-67
2022/04/24 06:39:45;;;;;;;9.52;5.35;;;10.20;99.90;;;;;;5109102;28;20048;-69
2022/04/24 06:42:11;;;;;;;8.02;5.05;;;10.30;99.90;;;;;;5108887;28;20032;-67
2022/04/24 06:44:36;;;;;;;7.22;4.45;;;10.40;99.90;;;;;;5089841;28;20083;-69
2022/04/24 06:47:02;;;;;;;8.32;4.53;;;10.40;99.90;;;;;;5108838;28;20193;-67
2022/04/24 06:49:28;;;;;;;8.60;4.43;;;10.50;99.90;;;;;;5109301;28;20373;-67
2022/04/24 06:51:54;;;;;;;9.55;4.53;;;10.50;99.90;;;;;;5106095;28;20080;-67
2022/04/24 06:54:19;;;;;;;6.13;4.10;;;10.60;99.90;;;;;;5090753;28;20040;-67
2022/04/24 06:56:45;;;;;;;6.97;3.80;;;10.60;99.90;;;;;;5107281;28;20083;-67
2022/04/24 06:59:10;;;;;;;7.00;3.80;;;10.70;99.90;;;;;;5108395;28;20109;-67
2022/04/24 07:01:36;;;;;;;6.45;4.28;;;10.80;99.90;;;;;;5073619;28;20194;-67
2022/04/24 07:04:01;;;;;;;7.68;3.90;;;10.90;99.90;;;;;;5088946;28;20040;-67
2022/04/24 07:06:27;;;;;;;5.35;3.05;;;11.00;99.90;;;;;;5085997;28;20457;-67
2022/04/24 07:08:52;;;;;;;7.13;3.40;;;11.00;99.90;;;;;;5087760;28;20050;-68
2022/04/24 07:11:18;;;;;;;6.95;3.50;;;11.10;99.90;;;;;;5099848;28;20040;-67
2022/04/24 07:13:44;;;;;;;6.57;3.40;;;11.20;99.90;;;;;;5107189;28;20039;-68
2022/04/24 07:16:10;;;;;;;8.15;3.25;;;11.20;99.90;;;;;;5108876;28;20400;-67
2022/04/24 07:18:35;;;;;;;6.15;3.13;;;11.40;99.90;;;;;;5108804;28;20044;-67
2022/04/24 07:21:02;;;;;;;5.75;3.20;;;11.40;99.90;;;;;;5107530;28;20436;-68
2022/04/24 07:23:28;;;;;;;7.07;3.17;;;11.40;99.90;;;;;;5107118;28;20040;-68
2022/04/24 07:25:54;;;;;;;5.88;3.13;;;11.60;99.90;;;;;;5089581;28;20051;-67
2022/04/24 07:28:22;;;;;;;5.88;3.33;;;12.80;99.90;;;;;;5107672;28;20040;-68
2022/04/24 07:30:47;;;;;;;6.65;3.08;;;11.70;99.90;;;;;;5105854;28;20051;-68
2022/04/24 07:33:13;;;;;;;5.28;3.00;;;11.80;99.90;;;;;;5089586;28;20051;-68
2022/04/24 07:35:40;;;;;;;5.72;2.83;;;11.90;99.90;;;;;;5089796;28;20427;-68
2022/04/24 07:38:06;;;;;;;6.30;3.13;;;12.10;99.90;;;;;;5086266;28;20055;-68
2022/04/24 07:40:35;;;;;;;5.57;3.15;;;12.20;99.90;;;;;;5095215;28;20055;-67
2022/04/24 07:43:03;;;;;;;5.05;3.05;;;12.30;99.90;;;;;;5107267;28;20050;-68
2022/04/24 07:45:31;;;;;;;7.13;3.00;;;12.40;99.90;;;;;;5108763;28;20093;-67
2022/04/24 07:47:57;;;;;;;6.10;3.05;;;12.80;99.90;;;;;;5088477;28;20048;-67
2022/04/24 07:50:25;;;;;;;6.78;3.08;;;12.70;99.90;;;;;;5108640;28;20176;-67
2022/04/24 07:52:52;;;;;;;7.30;3.10;;;12.80;99.90;;;;;;5105402;28;20047;-68
2022/04/24 07:55:22;;;;;;;5.65;3.00;;;12.90;99.90;;;;;;5107420;28;20349;-68
2022/04/24 07:57:50;;;;;;;6.28;3.50;;;12.90;99.90;;;;;;5107551;28;20055;-68
2022/04/24 08:00:17;;;;;;;5.82;3.30;;;12.90;99.90;;;;;;5090307;28;20476;-68
2022/04/24 08:02:53;;;;;;;7.05;3.20;;;12.90;99.90;;;;;;5107074;28;20044;-69
2022/04/24 08:05:29;;;;;;;5.88;3.50;;;13.00;99.90;;;;;;5108320;28;20059;-68
2022/04/24 08:07:58;;;;;;;5.65;3.15;;;13.00;99.90;;;;;;5105768;28;20040;-68
2022/04/24 08:10:26;;;;;;;8.32;3.28;;;13.10;99.90;;;;;;5107501;28;20422;-67
2022/04/24 08:12:52;;;;;;;5.10;2.97;;;13.20;99.90;;;;;;5090953;28;20385;-68
2022/04/24 08:15:18;;;;;;;6.35;3.38;;;13.20;99.90;;;;;;5096072;28;20051;-67
2022/04/24 08:17:44;;;;;;;6.53;3.42;;;13.30;99.90;;;;;;5090527;28;20169;-67
2022/04/24 08:20:11;;;;;;;5.13;3.20;;;13.40;99.90;;;;;;5091799;28;20071;-67
2022/04/24 08:22:41;;;;;;;7.30;3.42;;;13.50;99.90;;;;;;5109478;28;20110;-68
2022/04/24 08:25:08;;;;;;;6.18;3.25;;;13.50;99.90;;;;;;5114024;28;20118;-67
2022/04/24 08:27:34;;;;;;;6.35;3.50;;;13.70;99.90;;;;;;5113789;28;20243;-67
2022/04/24 08:30:00;;;;;;;8.32;4.03;;;13.80;99.90;;;;;;5110685;28;20108;-67
2022/04/24 08:32:26;;;;;;;8.15;3.38;;;13.90;99.90;;;;;;5111728;28;20489;-67
2022/04/24 08:34:52;;;;;;;6.25;3.58;;;14.00;99.90;;;;;;5111058;28;20039;-67
2022/04/24 08:37:18;;;;;;;7.35;3.47;;;14.10;99.90;;;;;;5109117;28;20128;-66
2022/04/24 08:39:43;;;;;;;6.07;3.58;;;14.20;99.90;;;;;;5076059;28;20056;-67
2022/04/24 08:42:09;;;;;;;6.25;3.10;;;14.30;99.90;;;;;;5092707;28;20558;-67
2022/04/24 08:44:36;;;;;;;6.75;3.33;;;14.40;99.90;;;;;;5111349;28;20130;-67
2022/04/24 08:47:03;;;;;;;5.18;3.10;;;14.40;99.90;;;;;;5092647;28;20399;-67
2022/04/24 08:49:31;;;;;;;5.25;3.15;;;14.50;99.90;;;;;;5110287;28;20434;-67
2022/04/24 08:52:00;;;;;;;6.80;3.70;;;14.60;99.90;;;;;;5106523;28;20552;-67
2022/04/24 08:54:29;;;;;;;7.10;3.42;;;14.70;99.90;;;;;;5092851;28;20048;-67
2022/04/24 08:56:59;;;;;;;5.95;3.38;;;14.80;99.90;;;;;;5109945;28;20048;-67
2022/04/24 08:59:24;;;;;;;6.35;3.25;;;14.90;99.90;;;;;;5092629;28;20044;-67
2022/04/24 09:01:51;;;;;;;5.97;3.50;;;15.10;99.90;;;;;;5091981;28;20109;-67
2022/04/24 09:04:18;;;;;;;11.02;3.88;;;15.20;99.90;;;;;;5090961;28;20051;-67
2022/04/24 09:06:54;;;;;;;7.25;3.60;;;15.30;99.90;;;;;;5069039;28;20058;-67
2022/04/24 09:09:20;;;;;;;6.90;3.70;;;15.40;99.90;;;;;;5091269;28;20127;-67
2022/04/24 09:11:45;;;;;;;5.32;3.60;;;15.50;99.90;;;;;;5089618;28;20123;-67
2022/04/24 09:14:24;;;;;;;6.55;3.83;;;16.40;99.90;;;;;;5092258;28;20514;-67
2022/04/24 09:16:49;;;;;;;6.15;3.78;;;15.50;99.90;;;;;;5089715;28;20370;-67
2022/04/24 09:19:23;;;;;;;6.60;3.63;;;15.70;99.90;;;;;;5089995;28;20055;-67
2022/04/24 09:22:00;;;;;;;7.22;3.85;;;15.80;99.90;;;;;;5087977;28;20431;-67
2022/04/24 09:24:38;;;;;;;7.10;3.55;;;15.90;99.90;;;;;;5105868;27;20415;-67
2022/04/24 09:27:03;;;;;;;8.25;3.90;;;16.00;99.90;;;;;;5104369;28;20093;-67
2022/04/24 09:29:29;;;;;;;7.38;3.60;;;16.20;99.90;;;;;;5107960;28;20047;-66
2022/04/24 09:31:55;;;;;;;8.07;3.42;;;16.20;99.90;;;;;;5104024;28;20044;-66
2022/04/24 09:34:27;;;;;;;5.75;3.10;;;16.30;99.90;;;;;;5109537;28;20048;-65
2022/04/24 09:37:10;;;;;;;7.80;3.38;;;16.40;98.90;;;;;;5090415;28;20043;-65
2022/04/24 09:39:37;;;;;;;5.07;2.97;;;16.40;99.60;;;;;;5110589;28;20456;-65
2022/04/24 09:42:08;;;;;;;7.03;3.15;;;16.70;98.90;;;;;;5109702;28;20036;-64
2022/04/24 09:44:51;;;;;;;5.70;3.08;;;17.10;98.70;;;;;;5092110;28;20083;-65
2022/04/24 09:47:24;;;;;;;4.97;2.95;;;18.70;98.00;;;;;;5109722;28;20096;-66
2022/04/24 09:49:50;;;;;;;5.75;2.88;;;21.50;94.30;;;;;;5093505;28;20040;-66
2022/04/24 09:52:18;;;;;;;4.75;2.80;;;24.30;90.70;;;;;;5108065;28;20044;-66
2022/04/24 09:54:51;;;;;;;6.80;3.10;;;26.70;82.90;;;;;;5073705;28;20039;-66
2022/04/24 09:57:18;;;;;;;5.95;2.78;;;29.00;74.20;;;;;;5091923;28;20499;-67
2022/04/24 09:59:46;;;;;;;4.18;2.38;;;31.30;67.20;;;;;;5091608;28;20055;-67
2022/04/24 10:02:14;;;;;;;5.57;2.92;;;32.80;60.80;;;;;;5109068;28;20094;-66
2022/04/24 10:04:41;;;;;;;5.00;2.90;;;34.00;54.90;;;;;;5109457;28;20123;-67
2022/04/24 10:07:08;;;;;;;6.47;2.63;;;34.80;51.60;;;;;;5089666;28;20043;-67
2022/04/24 10:09:42;;;;;;;4.80;2.60;;;35.60;51.10;;;;;;5092729;28;20051;-67
2022/04/24 10:12:09;;;;;;;5.88;2.42;;;36.50;47.70;;;;;;5086187;28;20078;-67
2022/04/24 10:14:55;;;;;;;4.95;2.53;;;37.10;46.80;;;;;;5101596;28;20036;-67
2022/04/24 10:17:54;;;;;;;4.85;2.53;;;37.30;44.90;;;;;;5089105;28;20040;-67
2022/04/24 10:20:35;;;;;;;5.05;2.47;;;37.50;45.10;;;;;;5089523;28;20044;-67
2022/04/24 10:23:01;;;;;;;3.58;2.22;;;38.10;44.70;;;;;;5086039;28;20102;-67
2022/04/24 10:25:38;;;;;;;3.78;2.30;;;38.40;43.50;;;;;;5095336;28;20087;-66
2022/04/24 10:28:13;;;;;;;4.95;2.15;;;38.90;42.80;;;;;;5109174;28;20047;-66
2022/04/24 10:30:39;;;;;;;4.43;2.60;;;38.60;41.90;;;;;;5090075;28;20082;-68
2022/04/24 10:33:25;;;;;;;5.10;2.42;;;38.60;41.50;;;;;;5109305;28;20456;-67
2022/04/24 10:35:59;;;;;;;6.07;2.42;;;38.20;40.60;;;;;;5107393;28;20554;-66
2022/04/24 10:38:26;;;;;;;3.92;2.00;;;38.10;40.40;;;;;;5107970;28;20040;-68
2022/04/24 10:41:03;;;;;;;3.28;2.03;;;36.90;40.90;;;;;;5108249;28;20387;-67
2022/04/24 10:43:46;;;;;;;3.85;2.15;;;37.20;40.70;;;;;;5106783;28;20039;-67
2022/04/24 10:46:33;;;;;;;3.50;2.00;;;37.70;39.70;;;;;;5090814;28;20061;-67
2022/04/24 10:49:13;;;;;;;4.78;2.10;;;38.20;39.30;;;;;;5108337;28;20051;-67
2022/04/24 10:51:41;;;;;;;3.20;1.90;;;39.10;38.30;;;;;;5105071;28;20036;-69
2022/04/24 10:54:08;;;;;;;4.85;1.77;;;38.50;39.10;;;;;;5107950;28;20058;-69
2022/04/24 10:56:36;;;;;;;3.75;2.10;;;38.30;38.70;;;;;;5107392;28;20122;-68
2022/04/24 10:59:13;;;;;;;5.90;2.10;;;38.60;38.70;;;;;;5107325;28;20506;-69
2022/04/24 11:01:43;;;;;;;3.35;1.90;;;39.00;38.70;;;;;;5057593;28;20055;-69
2022/04/24 11:04:11;;;;;;;2.85;1.80;;;39.00;38.40;;;;;;5090591;28;20036;-69
2022/04/24 11:06:37;;;;;;;6.40;2.20;;;39.40;38.50;;;;;;5086906;28;20422;-69
2022/04/24 11:09:13;;;;;;;6.03;2.50;;;39.80;38.80;;;;;;5088467;28;20123;-69
2022/04/24 11:11:57;;;;;;;5.07;2.42;;;40.30;38.70;;;;;;5087178;28;20055;-69
2022/04/24 11:14:25;;;;;;;5.85;2.55;;;39.40;38.80;;;;;;5070535;28;20041;-68
2022/04/24 11:16:59;;;;;;;3.70;2.38;;;39.40;39.00;;;;;;5069279;28;20073;-68
2022/04/24 11:19:27;;;;;;;5.38;2.70;;;39.70;38.90;;;;;;5070696;28;20040;-69
2022/04/24 11:21:59;;;;;;;5.65;2.20;;;40.40;38.60;;;;;;5084710;28;20040;-68
2022/04/24 11:24:27;;;;;;;4.85;2.60;;;41.00;38.30;;;;;;5088296;28;20052;-67
2022/04/24 11:26:54;;;;;;;5.47;2.75;;;41.50;37.80;;;;;;5085303;28;20044;-67
2022/04/24 11:29:20;;;;;;;5.03;2.47;;;41.50;37.80;;;;;;5090041;28;20044;-68
2022/04/24 11:31:52;;;;;;;6.18;2.80;;;41.50;37.70;;;;;;5087116;28;20046;-68
2022/04/24 11:34:19;;;;;;;5.53;2.80;;;40.80;37.80;;;;;;5069318;28;20052;-68
2022/04/24 11:36:45;;;;;;;6.00;2.95;;;38.90;38.00;;;;;;5085550;28;20475;-68
2022/04/24 11:39:12;;;;;;;4.50;2.80;;;36.70;38.70;;;;;;5087389;28;20047;-69
2022/04/24 11:41:38;;;;;;;7.18;3.00;;;34.50;39.90;;;;;;5087101;28;20082;-68
2022/04/24 11:52:36;;;;;;;5.03;3.10;;;28.30;44.90;;;;;;5109916;28;20440;-68
2022/04/24 11:55:05;;;;;;;6.28;2.85;;;27.40;45.80;;;;;;5111017;28;20483;-66
2022/04/24 11:57:32;;;;;;;4.68;2.92;;;27.00;46.00;;;;;;5111595;28;20485;-66
2022/04/24 11:59:58;;;;;;;7.53;3.42;;;27.30;46.20;;;;;;5111278;28;20329;-66
2022/04/24 12:02:29;;;;;;;6.65;2.80;;;28.70;45.90;;;;;;5111005;28;20092;-66
2022/04/24 12:04:58;;;;;;;5.32;2.60;;;30.80;44.40;;;;;;5111703;28;20035;-66
2022/04/24 12:07:32;;;;;;;5.45;2.92;;;32.10;43.40;;;;;;5091034;28;20046;-68
2022/04/24 12:10:06;;;;;;;6.97;3.10;;;33.20;42.40;;;;;;5111765;28;20043;-67
2022/04/24 12:12:47;;;;;;;6.55;2.88;;;34.30;41.30;;;;;;5103063;28;20341;-68
2022/04/24 12:15:17;;;;;;;5.82;3.00;;;35.00;41.30;;;;;;5079252;28;20129;-69
2022/04/24 12:17:51;;;;;;;4.93;2.83;;;35.40;41.00;;;;;;5090088;28;20055;-69
2022/04/24 12:20:17;;;;;;;6.15;2.50;;;35.90;40.40;;;;;;5092142;28;20096;-68
2022/04/24 12:22:43;;;;;;;4.93;2.60;;;35.70;40.20;;;;;;5088433;28;20063;-68
2022/04/24 12:25:15;;;;;;;4.63;2.53;;;35.10;40.20;;;;;;5092106;28;20119;-67
2022/04/24 12:27:55;;;;;;;7.25;2.90;;;35.10;40.40;;;;;;5089970;28;20044;-67
2022/04/24 12:30:22;;;;;;;7.80;3.20;;;35.40;40.20;;;;;;5110434;28;20047;-67
2022/04/24 12:32:48;;;;;;;5.65;2.67;;;35.40;40.30;;;;;;5113644;28;20039;-67
2022/04/24 12:35:28;;;;;;;4.97;2.65;;;34.50;40.30;;;;;;5111441;28;20039;-68
2022/04/24 12:37:53;;;;;;;4.93;2.80;;;32.70;40.70;;;;;;5109493;28;20372;-68
2022/04/24 12:40:21;;;;;;;7.15;3.00;;;30.50;42.00;;;;;;5111293;28;20065;-67
2022/04/24 12:42:54;;;;;;;5.60;2.90;;;28.90;43.40;;;;;;5109441;28;20140;-67
2022/04/24 12:45:21;;;;;;;5.40;2.80;;;27.50;44.90;;;;;;5093504;28;20078;-67
2022/04/24 12:47:48;;;;;;;6.05;3.17;;;26.30;46.10;;;;;;5091177;28;20044;-67
2022/04/24 12:50:17;;;;;;;5.25;2.85;;;25.40;47.40;;;;;;5092046;28;20039;-68
2022/04/24 12:52:43;;;;;;;6.55;3.20;;;24.60;48.30;;;;;;5108867;28;20108;-67
2022/04/24 12:55:10;;;;;;;6.00;3.30;;;24.10;50.20;;;;;;5092460;28;20083;-67
2022/04/24 12:57:37;;;;;;;6.68;3.03;;;23.50;50.80;;;;;;5074124;28;20079;-67